Time;durP1;ratioP1;P1;durP2;ratioP2;P2;SDS_P1;SDS_P2;PMS_P1;PMS_P2;Temp;Humidity;BMP_temperature;BMP_pressure;BME280_temperature;BME280_humidity;BME280_pressure;Samples;Min_cycle;Max_cycle;Signal;HPM_P1;HPM_P2
2022/06/19 00:01:27;;;;;;;5.78;1.55;;;17.50;59.70;;;;;;5090105;28;20030;-69
2022/06/19 00:03:55;;;;;;;4.88;1.60;;;17.60;59.50;;;;;;5094989;28;20083;-70
2022/06/19 00:06:21;;;;;;;7.28;1.90;;;17.50;59.40;;;;;;5092762;28;20024;-69
2022/06/19 00:08:48;;;;;;;7.47;1.75;;;17.50;59.40;;;;;;5096160;28;20418;-70
2022/06/19 00:11:18;;;;;;;6.85;1.90;;;17.50;59.30;;;;;;5099022;28;20374;-69
2022/06/19 00:13:44;;;;;;;8.02;2.00;;;17.40;59.30;;;;;;5088087;28;20360;-69
2022/06/19 00:16:10;;;;;;;5.47;2.10;;;17.50;59.30;;;;;;5094547;28;20034;-68
2022/06/19 00:18:38;;;;;;;6.25;1.80;;;17.40;59.30;;;;;;5084624;28;20486;-69
2022/06/19 00:21:08;;;;;;;7.25;1.60;;;17.30;59.40;;;;;;5089671;28;20493;-69
2022/06/19 00:23:34;;;;;;;6.60;1.70;;;17.40;59.50;;;;;;5095950;28;20023;-69
2022/06/19 00:26:00;;;;;;;3.95;1.23;;;17.40;59.50;;;;;;5101654;28;20039;-68
2022/06/19 00:28:26;;;;;;;5.60;1.88;;;17.40;59.50;;;;;;5087209;28;20035;-68
2022/06/19 00:30:52;;;;;;;6.57;1.75;;;17.40;59.70;;;;;;5104591;28;20028;-68
2022/06/19 00:33:19;;;;;;;6.95;1.77;;;17.30;59.90;;;;;;5085080;28;20036;-69
2022/06/19 00:35:46;;;;;;;6.05;1.92;;;17.30;60.00;;;;;;5087740;28;20051;-69
2022/06/19 00:38:11;;;;;;;6.13;1.80;;;17.30;60.70;;;;;;5087824;28;20028;-69
2022/06/19 00:40:37;;;;;;;6.72;1.83;;;17.30;60.10;;;;;;5081484;28;20805;-69
2022/06/19 00:43:03;;;;;;;5.95;1.60;;;17.30;60.20;;;;;;5075189;28;20536;-69
2022/06/19 00:45:49;;;;;;;6.65;1.88;;;17.20;60.40;;;;;;5083750;28;20058;-69
2022/06/19 00:48:31;;;;;;;8.85;2.20;;;17.20;60.50;;;;;;5085460;28;20023;-68
2022/06/19 00:51:02;;;;;;;9.88;2.20;;;17.10;60.90;;;;;;5086675;28;20040;-70
2022/06/19 00:53:32;;;;;;;8.00;2.00;;;17.00;61.00;;;;;;5085212;28;20031;-71
2022/06/19 00:55:59;;;;;;;5.03;1.60;;;17.00;61.20;;;;;;5078879;28;20024;-70
2022/06/19 00:58:36;;;;;;;5.53;1.83;;;17.00;61.00;;;;;;5083071;28;20028;-70
2022/06/19 01:01:08;;;;;;;8.73;2.25;;;17.00;61.20;;;;;;5080658;28;20077;-70
2022/06/19 01:03:54;;;;;;;6.63;2.00;;;17.00;61.40;;;;;;5083725;28;20723;-71
2022/06/19 01:06:21;;;;;;;8.73;2.25;;;17.00;61.40;;;;;;5098800;28;20585;-70
2022/06/19 01:08:47;;;;;;;10.40;2.20;;;16.90;61.60;;;;;;5094464;28;20039;-69
2022/06/19 01:11:17;;;;;;;7.20;2.03;;;16.90;61.80;;;;;;5093449;28;20024;-69
2022/06/19 01:13:43;;;;;;;5.30;1.63;;;16.80;61.70;;;;;;5085018;28;20024;-69
2022/06/19 01:16:09;;;;;;;6.82;1.90;;;16.90;61.70;;;;;;5092059;28;20016;-70
2022/06/19 01:18:36;;;;;;;6.50;1.92;;;16.90;61.60;;;;;;5093279;28;20043;-70
2022/06/19 01:21:20;;;;;;;8.57;2.22;;;16.80;61.60;;;;;;5086829;28;20024;-70
2022/06/19 01:23:57;;;;;;;7.93;2.00;;;16.70;61.70;;;;;;5083999;28;20028;-70
2022/06/19 01:26:23;;;;;;;6.93;2.05;;;16.70;61.50;;;;;;5092956;28;20410;-70
2022/06/19 01:28:56;;;;;;;8.60;2.28;;;16.70;61.40;;;;;;5074799;28;20032;-71
2022/06/19 01:31:42;;;;;;;8.95;2.45;;;16.60;61.20;;;;;;5080670;28;20020;-70
2022/06/19 01:34:28;;;;;;;6.80;2.15;;;16.70;61.10;;;;;;5088493;28;20091;-71
2022/06/19 01:37:16;;;;;;;7.18;1.92;;;16.60;60.90;;;;;;5091415;28;20492;-71
2022/06/19 01:39:46;;;;;;;9.27;1.90;;;16.60;60.50;;;;;;5091209;28;20035;-71
2022/06/19 01:42:13;;;;;;;7.90;2.10;;;16.70;60.10;;;;;;5082828;28;20028;-71
2022/06/19 01:44:40;;;;;;;8.98;1.85;;;16.60;59.60;;;;;;5092781;28;20032;-72
2022/06/19 01:47:07;;;;;;;5.85;1.73;;;16.60;59.10;;;;;;5091921;28;20044;-72
2022/06/19 01:49:36;;;;;;;4.65;1.70;;;16.70;58.80;;;;;;5091105;28;20115;-70
2022/06/19 01:52:03;;;;;;;8.23;1.90;;;16.60;58.40;;;;;;5087797;28;20035;-71
2022/06/19 01:54:34;;;;;;;10.00;1.98;;;16.60;58.00;;;;;;5086566;28;20088;-70
2022/06/19 01:57:00;;;;;;;7.00;1.90;;;16.60;57.80;;;;;;5088342;28;20028;-70
2022/06/19 01:59:31;;;;;;;4.47;1.70;;;16.60;57.30;;;;;;5086820;28;20028;-69
2022/06/19 02:01:59;;;;;;;5.57;1.67;;;16.60;56.80;;;;;;5089786;28;20024;-69
2022/06/19 02:04:25;;;;;;;4.72;1.60;;;16.60;56.60;;;;;;5088357;28;20024;-70
2022/06/19 02:06:56;;;;;;;3.55;1.25;;;16.60;56.40;;;;;;5092060;28;20513;-70
2022/06/19 02:09:23;;;;;;;6.05;1.85;;;16.60;56.10;;;;;;5087869;28;20387;-70
2022/06/19 02:11:49;;;;;;;6.97;1.85;;;16.70;55.70;;;;;;5085280;28;20016;-70
2022/06/19 02:14:16;;;;;;;5.93;1.73;;;16.70;55.50;;;;;;5100630;28;20376;-69
2022/06/19 02:16:44;;;;;;;4.80;1.58;;;16.70;55.00;;;;;;5093032;28;20085;-70
2022/06/19 02:19:10;;;;;;;5.00;1.70;;;16.70;54.70;;;;;;5082112;28;20040;-69
2022/06/19 02:21:42;;;;;;;7.20;1.75;;;16.70;54.50;;;;;;5087562;28;20040;-70
2022/06/19 02:24:14;;;;;;;6.63;1.77;;;16.70;54.30;;;;;;5085643;28;20028;-70
2022/06/19 02:26:41;;;;;;;7.07;1.85;;;16.60;54.10;;;;;;5089629;28;20028;-70
2022/06/19 02:29:09;;;;;;;4.07;1.40;;;16.60;54.20;;;;;;5086250;28;20031;-70
2022/06/19 02:31:40;;;;;;;5.60;1.40;;;16.60;54.40;;;;;;5096299;28;20024;-70
2022/06/19 02:34:21;;;;;;;9.98;1.77;;;16.60;54.70;;;;;;5097003;28;20051;-70
2022/06/19 02:36:59;;;;;;;6.45;1.70;;;16.60;55.20;;;;;;5092857;28;20016;-70
2022/06/19 02:39:43;;;;;;;5.47;1.73;;;16.50;55.70;;;;;;5090613;28;20059;-69
2022/06/19 02:42:20;;;;;;;6.50;1.83;;;16.50;56.90;;;;;;5089120;28;20514;-69
2022/06/19 02:44:52;;;;;;;5.75;1.50;;;16.50;56.70;;;;;;5090268;28;20029;-70
2022/06/19 02:47:18;;;;;;;6.35;1.60;;;16.40;56.90;;;;;;5086532;28;20111;-70
2022/06/19 02:49:44;;;;;;;5.28;1.50;;;16.50;57.10;;;;;;5097448;28;20118;-70
2022/06/19 02:52:12;;;;;;;5.97;1.65;;;16.50;57.30;;;;;;5092900;28;20255;-70
2022/06/19 02:54:38;;;;;;;6.47;1.67;;;16.50;57.30;;;;;;5091166;28;20363;-70
2022/06/19 02:57:06;;;;;;;4.35;1.50;;;16.50;57.40;;;;;;5091122;28;20027;-70
2022/06/19 02:59:32;;;;;;;5.60;1.55;;;16.50;57.30;;;;;;5096776;28;20157;-72
2022/06/19 03:01:58;;;;;;;7.78;1.70;;;16.50;57.30;;;;;;5095181;28;20024;-70
2022/06/19 03:04:35;;;;;;;8.50;1.95;;;16.50;57.40;;;;;;5072872;28;20090;-70
2022/06/19 03:07:00;;;;;;;5.32;1.60;;;16.50;57.60;;;;;;5080804;28;20401;-71
2022/06/19 03:09:26;;;;;;;6.10;1.48;;;16.50;57.60;;;;;;5084948;28;20024;-71
2022/06/19 03:11:51;;;;;;;4.72;1.30;;;16.50;57.70;;;;;;5091453;28;20026;-71
2022/06/19 03:14:17;;;;;;;6.30;1.55;;;16.40;57.80;;;;;;5072895;28;20090;-72
2022/06/19 03:16:44;;;;;;;8.50;1.50;;;16.40;58.10;;;;;;5088013;28;20496;-72
2022/06/19 03:19:09;;;;;;;5.45;1.23;;;16.30;58.10;;;;;;5090087;28;20450;-72
2022/06/19 03:21:35;;;;;;;4.85;1.35;;;16.30;58.10;;;;;;5090660;28;20044;-72
2022/06/19 03:24:00;;;;;;;7.57;1.70;;;16.30;58.00;;;;;;5081475;28;20097;-71
2022/06/19 03:26:26;;;;;;;5.00;1.60;;;16.30;57.80;;;;;;5087361;28;20055;-71
2022/06/19 03:28:53;;;;;;;5.32;1.42;;;16.20;57.70;;;;;;5089188;28;20036;-71
2022/06/19 03:31:23;;;;;;;2.97;1.38;;;16.30;57.60;;;;;;5091202;28;20012;-71
2022/06/19 03:33:49;;;;;;;3.10;1.00;;;16.30;57.40;;;;;;5090168;28;20024;-71
2022/06/19 03:36:15;;;;;;;4.68;1.20;;;16.30;57.40;;;;;;5085593;28;20482;-71
2022/06/19 03:38:41;;;;;;;4.55;1.33;;;16.20;57.40;;;;;;5081316;28;20063;-71
2022/06/19 03:41:07;;;;;;;4.45;1.40;;;16.30;57.40;;;;;;5089907;28;20364;-71
2022/06/19 03:43:33;;;;;;;4.72;1.30;;;16.30;57.40;;;;;;5087121;28;20040;-72
2022/06/19 03:46:07;;;;;;;4.72;1.40;;;16.20;57.50;;;;;;5090719;28;20551;-73
2022/06/19 03:48:33;;;;;;;6.47;1.63;;;16.20;58.10;;;;;;5079114;28;20029;-74
2022/06/19 03:50:59;;;;;;;6.22;1.63;;;16.10;58.50;;;;;;5085472;28;20031;-72
2022/06/19 03:53:24;;;;;;;7.40;1.60;;;16.10;58.80;;;;;;5073805;28;20020;-73
2022/06/19 03:55:50;;;;;;;5.68;1.50;;;16.10;59.20;;;;;;5089540;28;20046;-73
2022/06/19 03:58:16;;;;;;;5.88;1.40;;;16.10;59.60;;;;;;5086435;28;20232;-73
2022/06/19 04:00:41;;;;;;;5.25;1.45;;;16.10;59.90;;;;;;5091601;28;20020;-74
2022/06/19 04:03:07;;;;;;;8.82;1.77;;;16.10;60.30;;;;;;5094613;28;20532;-74
2022/06/19 04:05:33;;;;;;;5.75;1.38;;;16.00;60.60;;;;;;5087170;28;20098;-74
2022/06/19 04:07:58;;;;;;;6.88;1.50;;;16.00;60.70;;;;;;5084078;28;20024;-73
2022/06/19 04:10:24;;;;;;;5.35;1.63;;;16.00;60.80;;;;;;5088283;28;20028;-73
2022/06/19 04:12:50;;;;;;;6.15;1.70;;;16.00;61.20;;;;;;5090574;28;20470;-70
2022/06/19 04:15:16;;;;;;;8.77;1.90;;;16.00;61.70;;;;;;5089621;28;20031;-69
2022/06/19 04:17:42;;;;;;;5.65;1.50;;;16.00;61.90;;;;;;5086704;28;20032;-69
2022/06/19 04:20:09;;;;;;;4.68;1.40;;;16.10;61.90;;;;;;5088028;28;20510;-70
2022/06/19 04:22:35;;;;;;;5.15;1.58;;;16.10;61.70;;;;;;5089965;28;20032;-70
2022/06/19 04:25:01;;;;;;;6.10;1.60;;;16.10;61.50;;;;;;5088111;28;20542;-71
2022/06/19 04:27:27;;;;;;;4.22;1.30;;;16.10;61.50;;;;;;5085799;28;20140;-70
2022/06/19 04:29:53;;;;;;;7.53;1.75;;;16.10;61.80;;;;;;5087909;28;20136;-71
2022/06/19 04:32:18;;;;;;;5.85;1.77;;;16.20;61.50;;;;;;5090212;28;20057;-71
2022/06/19 04:34:44;;;;;;;5.60;1.60;;;16.20;61.50;;;;;;5079323;28;20471;-71
2022/06/19 04:37:09;;;;;;;6.68;1.70;;;16.20;61.50;;;;;;5070968;28;20093;-70
2022/06/19 04:39:35;;;;;;;6.13;1.70;;;16.20;61.50;;;;;;5086059;28;20028;-69
2022/06/19 04:42:01;;;;;;;5.93;1.70;;;16.20;61.50;;;;;;5083635;28;20638;-70
2022/06/19 04:44:27;;;;;;;4.97;1.35;;;16.20;60.70;;;;;;5087373;28;20051;-70
2022/06/19 04:46:53;;;;;;;4.53;1.40;;;16.30;59.60;;;;;;5088836;28;20032;-70
2022/06/19 04:49:19;;;;;;;6.60;1.73;;;16.30;58.90;;;;;;5083793;28;20025;-71
2022/06/19 04:51:44;;;;;;;7.88;1.67;;;16.30;58.40;;;;;;5089234;28;20020;-72
2022/06/19 04:54:11;;;;;;;5.43;1.50;;;16.20;57.40;;;;;;5088242;28;20028;-70
2022/06/19 04:56:38;;;;;;;5.38;1.65;;;16.30;57.80;;;;;;5088129;28;20020;-71
2022/06/19 04:59:05;;;;;;;5.90;1.48;;;16.30;57.20;;;;;;5079577;28;20444;-71
2022/06/19 05:01:36;;;;;;;5.50;1.50;;;16.50;57.30;;;;;;5083377;28;20047;-71
2022/06/19 05:04:08;;;;;;;7.18;1.55;;;16.60;57.30;;;;;;5081377;28;20406;-72
2022/06/19 05:06:33;;;;;;;7.22;1.70;;;16.80;57.80;;;;;;5069694;28;20052;-71
2022/06/19 05:08:59;;;;;;;4.43;1.65;;;16.90;57.00;;;;;;5081675;28;20529;-72
2022/06/19 05:11:27;;;;;;;6.85;2.10;;;17.10;56.80;;;;;;5087563;28;20112;-72
2022/06/19 05:13:53;;;;;;;5.40;1.80;;;17.00;56.50;;;;;;5083529;28;20024;-76
2022/06/19 05:16:22;;;;;;;7.00;1.80;;;17.10;56.50;;;;;;5080754;28;20027;-75
2022/06/19 05:18:49;;;;;;;7.18;1.60;;;17.20;56.00;;;;;;5078257;28;20029;-74
2022/06/19 05:21:15;;;;;;;5.18;1.52;;;17.20;55.90;;;;;;5087659;28;20023;-74
2022/06/19 05:23:45;;;;;;;5.63;1.50;;;17.40;55.90;;;;;;5084746;28;20078;-74
2022/06/19 05:26:16;;;;;;;5.93;1.45;;;17.70;55.30;;;;;;5082782;28;20561;-74
2022/06/19 05:28:43;;;;;;;5.25;1.13;;;17.80;54.80;;;;;;5082470;28;20088;-75
2022/06/19 05:31:09;;;;;;;3.60;1.30;;;17.80;54.60;;;;;;5089299;28;20430;-73
2022/06/19 05:33:35;;;;;;;3.25;1.00;;;18.00;54.50;;;;;;5088368;28;20058;-73
2022/06/19 05:36:01;;;;;;;3.25;1.10;;;18.50;54.00;;;;;;5084325;28;20048;-73
2022/06/19 05:38:27;;;;;;;3.55;1.25;;;18.90;53.30;;;;;;5081913;28;20367;-73
2022/06/19 05:40:55;;;;;;;4.25;1.30;;;19.00;52.30;;;;;;5089256;28;20026;-73
2022/06/19 05:43:22;;;;;;;3.05;1.10;;;19.20;52.30;;;;;;5076503;28;20094;-73
2022/06/19 05:45:59;;;;;;;2.03;0.85;;;19.00;51.30;;;;;;5080126;28;20020;-70
2022/06/19 05:48:27;;;;;;;3.60;1.20;;;18.90;51.80;;;;;;5082703;28;20031;-73
2022/06/19 05:51:01;;;;;;;3.85;1.20;;;18.80;52.20;;;;;;5090415;28;20459;-74
2022/06/19 05:53:28;;;;;;;4.65;1.27;;;18.70;52.30;;;;;;5092170;28;20662;-69
2022/06/19 05:55:54;;;;;;;4.00;1.20;;;18.70;52.60;;;;;;5097898;28;20026;-71
2022/06/19 05:58:20;;;;;;;3.70;1.27;;;18.80;52.40;;;;;;5085316;28;20036;-70
2022/06/19 06:00:46;;;;;;;3.65;1.17;;;18.90;52.00;;;;;;5088648;28;20623;-71
2022/06/19 06:03:17;;;;;;;4.45;1.10;;;18.90;51.90;;;;;;5089432;28;20031;-70
2022/06/19 06:05:43;;;;;;;3.75;1.10;;;18.90;51.50;;;;;;5098028;28;20016;-72
2022/06/19 06:08:10;;;;;;;2.30;0.90;;;19.00;51.20;;;;;;5089090;27;20057;-70
2022/06/19 06:10:35;;;;;;;3.90;1.05;;;19.10;50.40;;;;;;5092976;28;20084;-70
2022/06/19 06:13:01;;;;;;;2.75;0.90;;;19.10;50.00;;;;;;5096164;28;20103;-70
2022/06/19 06:15:27;;;;;;;3.00;0.90;;;19.20;49.60;;;;;;5097468;28;20632;-72
2022/06/19 06:17:52;;;;;;;2.42;0.80;;;19.30;49.40;;;;;;5088117;28;20027;-72
2022/06/19 06:20:18;;;;;;;2.08;0.75;;;19.50;48.80;;;;;;5103359;28;20497;-72
2022/06/19 06:22:43;;;;;;;2.55;0.88;;;19.60;47.90;;;;;;5081034;28;20458;-71
2022/06/19 06:25:12;;;;;;;3.30;0.88;;;19.60;47.30;;;;;;5096274;28;20048;-72
2022/06/19 06:27:38;;;;;;;2.05;0.73;;;19.70;47.50;;;;;;5084164;28;20032;-72
2022/06/19 06:30:05;;;;;;;2.25;0.77;;;19.70;46.50;;;;;;5078638;28;20077;-73
2022/06/19 06:32:30;;;;;;;3.95;1.10;;;19.60;46.40;;;;;;5087232;28;20028;-72
2022/06/19 06:34:56;;;;;;;2.53;1.00;;;19.50;46.60;;;;;;5078808;28;20535;-72
2022/06/19 06:37:21;;;;;;;3.15;0.80;;;19.30;46.60;;;;;;5075595;28;20150;-72
2022/06/19 06:39:47;;;;;;;2.25;0.90;;;19.20;46.90;;;;;;5079371;28;20107;-72
2022/06/19 06:42:13;;;;;;;4.15;1.00;;;19.20;47.30;;;;;;5080844;28;20512;-70
2022/06/19 06:44:38;;;;;;;3.80;1.20;;;19.00;47.40;;;;;;5079187;28;20483;-68
2022/06/19 06:47:04;;;;;;;3.58;0.85;;;18.90;47.80;;;;;;5091176;28;20052;-68
2022/06/19 06:49:30;;;;;;;3.25;0.90;;;18.80;48.10;;;;;;5089135;28;20031;-70
2022/06/19 06:51:56;;;;;;;2.97;0.80;;;18.90;48.50;;;;;;5093039;28;20047;-70
2022/06/19 06:54:21;;;;;;;2.85;0.90;;;18.90;49.00;;;;;;5087189;28;20028;-73
2022/06/19 06:56:47;;;;;;;2.50;0.95;;;18.80;49.90;;;;;;5098961;28;20486;-70
2022/06/19 06:59:12;;;;;;;4.60;1.20;;;18.70;50.70;;;;;;5085999;28;20157;-70
2022/06/19 07:01:38;;;;;;;4.30;1.13;;;18.50;51.40;;;;;;5085057;28;20026;-70
2022/06/19 07:04:04;;;;;;;3.63;1.10;;;18.30;52.30;;;;;;5078463;28;20124;-72
2022/06/19 07:06:31;;;;;;;3.75;1.10;;;18.10;53.00;;;;;;5084758;28;20445;-71
2022/06/19 07:08:57;;;;;;;4.15;1.10;;;18.00;53.90;;;;;;5092184;28;20020;-72
2022/06/19 07:11:33;;;;;;;3.78;1.08;;;17.90;54.70;;;;;;5086170;28;20085;-71
2022/06/19 07:13:59;;;;;;;7.60;1.10;;;17.70;55.30;;;;;;5082126;28;20107;-72
2022/06/19 07:16:24;;;;;;;5.38;1.10;;;17.60;56.00;;;;;;5077289;28;20440;-71
2022/06/19 07:18:50;;;;;;;2.53;0.90;;;17.50;56.80;;;;;;5080423;28;20032;-69
2022/06/19 07:21:16;;;;;;;4.43;1.10;;;17.40;57.60;;;;;;5076726;28;20472;-70
2022/06/19 07:23:41;;;;;;;5.35;1.20;;;17.30;58.40;;;;;;5085575;28;20024;-70
2022/06/19 07:26:12;;;;;;;4.40;1.30;;;17.20;59.30;;;;;;5083182;28;20020;-71
2022/06/19 07:28:39;;;;;;;4.05;1.30;;;17.00;60.50;;;;;;5087400;28;20020;-70
2022/06/19 07:31:06;;;;;;;4.95;1.20;;;16.90;61.60;;;;;;5080133;28;20059;-70
2022/06/19 07:33:33;;;;;;;4.22;1.25;;;16.80;62.30;;;;;;5091260;28;20040;-72
2022/06/19 07:35:59;;;;;;;3.22;1.10;;;16.70;63.00;;;;;;5080785;28;20076;-69
2022/06/19 07:38:24;;;;;;;4.03;1.10;;;16.70;63.50;;;;;;5085487;28;20486;-72
2022/06/19 07:40:50;;;;;;;8.57;1.85;;;16.60;63.80;;;;;;5080272;28;20038;-69
2022/06/19 07:43:15;;;;;;;6.53;1.30;;;16.60;64.50;;;;;;5079947;28;20028;-70
2022/06/19 07:45:41;;;;;;;5.03;1.52;;;16.60;64.80;;;;;;5076748;28;20379;-73
2022/06/19 07:50:54;;;;;;;5.88;1.50;;;16.60;65.80;;;;;;5077958;28;20655;-72
2022/06/19 07:53:19;;;;;;;3.85;1.35;;;16.50;66.30;;;;;;5074447;28;20020;-69
2022/06/19 07:55:45;;;;;;;4.95;1.60;;;16.50;66.90;;;;;;5081651;28;20025;-70
2022/06/19 07:58:11;;;;;;;6.22;1.60;;;16.50;67.30;;;;;;5078444;28;20039;-70
2022/06/19 08:00:37;;;;;;;3.38;0.95;;;16.60;67.20;;;;;;5078406;28;20081;-70
2022/06/19 08:03:04;;;;;;;4.22;1.30;;;16.60;67.20;;;;;;5080611;28;20059;-71
2022/06/19 08:05:32;;;;;;;4.05;1.30;;;16.70;67.40;;;;;;5074868;28;20012;-71
2022/06/19 08:08:00;;;;;;;4.00;1.10;;;16.70;67.60;;;;;;5079579;28;20031;-71
2022/06/19 08:10:39;;;;;;;5.95;1.45;;;16.70;67.70;;;;;;5077461;28;20016;-71
2022/06/19 08:13:06;;;;;;;2.75;0.88;;;16.60;68.90;;;;;;5073710;28;20016;-70
2022/06/19 08:15:33;;;;;;;2.88;0.85;;;16.50;69.40;;;;;;5075769;28;20042;-71
2022/06/19 08:17:59;;;;;;;5.85;1.58;;;16.50;69.60;;;;;;5080183;28;20012;-71
2022/06/19 08:20:25;;;;;;;4.70;1.33;;;16.40;70.00;;;;;;5078981;28;20032;-71
2022/06/19 08:22:50;;;;;;;3.88;1.30;;;16.30;70.80;;;;;;5078546;28;20158;-70
2022/06/19 08:25:18;;;;;;;6.72;1.42;;;16.20;71.30;;;;;;5071446;28;20111;-70
2022/06/19 08:27:48;;;;;;;4.60;1.17;;;16.10;71.60;;;;;;5076128;28;20025;-72
2022/06/19 08:30:19;;;;;;;5.93;1.80;;;16.10;71.80;;;;;;5075736;28;20398;-70
2022/06/19 08:32:44;;;;;;;8.07;1.80;;;16.00;72.20;;;;;;5080889;28;20048;-69
2022/06/19 08:35:10;;;;;;;4.07;1.40;;;16.00;72.40;;;;;;5078633;28;20399;-70
2022/06/19 08:37:37;;;;;;;5.35;1.60;;;15.90;72.30;;;;;;5080200;28;20024;-71
2022/06/19 08:40:30;;;;;;;7.25;1.80;;;16.00;72.20;;;;;;5079024;28;20016;-70
2022/06/19 08:43:20;;;;;;;6.38;1.80;;;15.90;72.40;;;;;;5070398;28;20429;-69
2022/06/19 08:46:05;;;;;;;7.38;2.85;;;16.00;72.20;;;;;;5077145;28;20131;-70
2022/06/19 08:48:50;;;;;;;5.97;1.73;;;16.00;72.20;;;;;;5070125;28;20086;-68
2022/06/19 08:51:38;;;;;;;9.48;1.92;;;16.00;72.90;;;;;;5080116;28;20036;-69
2022/06/19 08:54:10;;;;;;;6.35;1.50;;;16.10;72.70;;;;;;5077461;28;20094;-69
2022/06/19 08:56:46;;;;;;;7.18;1.60;;;16.00;72.40;;;;;;5075734;28;20470;-70
2022/06/19 08:59:34;;;;;;;7.05;2.20;;;16.00;72.60;;;;;;5078572;28;20044;-70
2022/06/19 09:02:24;;;;;;;4.88;1.40;;;16.00;72.70;;;;;;5077435;28;20556;-70
2022/06/19 09:08:29;;;;;;;4.65;1.30;;;16.00;73.20;;;;;;5077365;28;20036;-69
2022/06/19 09:11:14;;;;;;;4.97;1.67;;;16.10;72.50;;;;;;5081739;28;20035;-70
2022/06/19 09:14:15;;;;;;;4.88;1.35;;;16.10;72.40;;;;;;5078007;28;20032;-69
2022/06/19 09:16:46;;;;;;;5.53;1.40;;;16.20;72.10;;;;;;5082523;28;20111;-70
2022/06/19 09:19:14;;;;;;;6.78;1.50;;;16.20;71.90;;;;;;5068948;28;20028;-69
2022/06/19 09:22:04;;;;;;;5.57;1.60;;;16.30;72.00;;;;;;5079931;28;20024;-70
2022/06/19 09:24:38;;;;;;;6.28;1.67;;;16.40;72.10;;;;;;5095294;28;20050;-70
2022/06/19 09:27:04;;;;;;;5.63;1.90;;;16.60;72.40;;;;;;5093133;28;20021;-70
2022/06/19 09:29:46;;;;;;;7.43;1.83;;;16.70;72.40;;;;;;5078642;28;20056;-70
2022/06/19 09:32:30;;;;;;;5.68;1.90;;;16.80;72.90;;;;;;5084613;28;20106;-70
2022/06/19 09:35:01;;;;;;;6.03;1.70;;;17.00;73.00;;;;;;5082723;28;20074;-70
2022/06/19 09:37:40;;;;;;;6.75;1.73;;;17.20;72.50;;;;;;5086064;28;20441;-70
2022/06/19 09:40:44;;;;;;;6.07;1.50;;;17.30;71.70;;;;;;5083422;28;20051;-70
2022/06/19 09:43:22;;;;;;;5.25;1.65;;;17.50;71.10;;;;;;5070512;28;20044;-70
2022/06/19 09:46:04;;;;;;;4.78;1.50;;;17.60;69.60;;;;;;5083529;28;20132;-70
2022/06/19 09:48:45;;;;;;;4.78;1.35;;;17.70;68.80;;;;;;5079942;28;20553;-70
2022/06/19 09:51:20;;;;;;;5.15;1.48;;;17.80;67.70;;;;;;5083144;28;20120;-70
2022/06/19 09:53:55;;;;;;;5.35;1.27;;;17.90;66.70;;;;;;5086688;28;20047;-70
2022/06/19 09:56:36;;;;;;;3.17;1.23;;;18.10;66.40;;;;;;5081132;28;20055;-70
2022/06/19 09:59:19;;;;;;;3.22;1.15;;;18.40;65.60;;;;;;5078543;28;20029;-70
2022/06/19 10:01:46;;;;;;;;;;;18.60;64.10;;;;;;5094635;28;20027;-70
2022/06/19 10:04:19;;;;;;;3.33;1.00;;;18.80;64.30;;;;;;5100727;28;19955;-70
2022/06/19 10:06:53;;;;;;;2.97;0.93;;;19.00;63.70;;;;;;5087172;28;20509;-70
2022/06/19 10:09:27;;;;;;;3.55;1.08;;;19.20;63.10;;;;;;5090056;28;20153;-70
2022/06/19 10:11:56;;;;;;;4.53;1.30;;;19.30;62.30;;;;;;5088968;28;20020;-70
2022/06/19 10:14:30;;;;;;;2.45;1.00;;;19.30;60.90;;;;;;5076671;28;20020;-70
2022/06/19 10:17:01;;;;;;;4.55;1.20;;;19.40;60.80;;;;;;5077850;28;20023;-70
2022/06/19 10:19:33;;;;;;;2.28;1.00;;;19.20;59.60;;;;;;5085135;28;20032;-70
2022/06/19 10:22:26;;;;;;;2.90;1.10;;;19.20;59.80;;;;;;5078694;28;20049;-70
2022/06/19 10:25:04;;;;;;;4.43;1.30;;;19.30;60.20;;;;;;5090191;28;20486;-70
2022/06/19 10:27:48;;;;;;;3.17;1.30;;;19.30;58.80;;;;;;5091622;28;20027;-69
2022/06/19 10:30:26;;;;;;;1.88;0.90;;;19.20;59.50;;;;;;5081854;28;20721;-70
2022/06/19 10:33:11;;;;;;;3.38;1.20;;;19.30;59.60;;;;;;5083173;28;20090;-70
2022/06/19 10:35:44;;;;;;;2.45;0.80;;;19.40;59.70;;;;;;5094163;28;20095;-70
2022/06/19 10:38:18;;;;;;;3.03;1.30;;;19.50;59.50;;;;;;5084593;28;20548;-70
2022/06/19 10:41:07;;;;;;;4.90;1.67;;;19.60;59.70;;;;;;5089394;28;20446;-70
2022/06/19 10:43:52;;;;;;;4.75;1.52;;;19.60;59.70;;;;;;5093485;28;20386;-70
2022/06/19 10:46:17;;;;;;;4.32;1.50;;;19.60;59.80;;;;;;5084670;28;20068;-70
2022/06/19 10:49:14;;;;;;;3.42;1.30;;;19.60;59.90;;;;;;5102726;28;20070;-70
2022/06/19 10:52:09;;;;;;;4.93;1.40;;;19.80;60.20;;;;;;5086690;28;20031;-70
2022/06/19 10:54:47;;;;;;;2.92;1.30;;;20.00;60.10;;;;;;5053350;28;20059;-69
2022/06/19 10:57:27;;;;;;;4.50;1.67;;;20.10;59.80;;;;;;5092591;28;20024;-69
2022/06/19 10:59:52;;;;;;;4.18;1.40;;;20.10;59.80;;;;;;5100921;28;20027;-69
2022/06/19 11:05:49;;;;;;;4.25;1.48;;;20.20;59.70;;;;;;5084142;28;20526;-69
2022/06/19 11:08:18;;;;;;;6.60;1.70;;;20.20;60.10;;;;;;5097621;28;20549;-69
2022/06/19 11:10:52;;;;;;;5.65;1.65;;;20.30;60.20;;;;;;5091314;28;20074;-69
2022/06/19 11:13:18;;;;;;;4.28;1.60;;;20.40;60.00;;;;;;5084178;28;20700;-70
2022/06/19 11:15:58;;;;;;;4.85;1.58;;;20.40;59.80;;;;;;5083191;28;20099;-70
2022/06/19 11:18:25;;;;;;;4.10;1.80;;;20.50;59.50;;;;;;5093584;28;20024;-70
2022/06/19 11:21:02;;;;;;;4.65;1.67;;;20.50;59.30;;;;;;5086604;28;20020;-70
2022/06/19 11:23:48;;;;;;;4.80;1.60;;;20.60;59.20;;;;;;5094490;28;20028;-68
2022/06/19 11:26:33;;;;;;;6.22;2.10;;;20.80;59.30;;;;;;5092869;28;20505;-70
2022/06/19 11:29:07;;;;;;;5.25;1.60;;;20.70;59.30;;;;;;5078787;28;20047;-70
2022/06/19 11:32:04;;;;;;;4.75;1.70;;;20.60;59.80;;;;;;5080828;28;20689;-69
2022/06/19 11:34:51;;;;;;;5.05;1.92;;;20.60;60.00;;;;;;5093533;28;20024;-69
2022/06/19 11:37:28;;;;;;;5.35;1.65;;;20.70;60.10;;;;;;5078167;28;20390;-69
2022/06/19 11:39:57;;;;;;;4.47;1.95;;;20.70;59.90;;;;;;5088048;28;20016;-69
2022/06/19 11:42:35;;;;;;;4.30;1.70;;;20.60;60.00;;;;;;5088749;28;20546;-69
2022/06/19 11:45:13;;;;;;;4.78;1.60;;;20.60;60.20;;;;;;5094302;28;20127;-69
2022/06/19 11:47:43;;;;;;;3.58;1.50;;;20.60;60.10;;;;;;5093381;28;20055;-69
2022/06/19 11:50:11;;;;;;;4.00;1.58;;;20.60;60.20;;;;;;5086959;28;20031;-69
2022/06/19 11:52:39;;;;;;;3.25;1.30;;;20.70;60.10;;;;;;5101229;28;20383;-69
2022/06/19 11:55:37;;;;;;;4.40;1.88;;;20.60;60.10;;;;;;5085367;28;20568;-69
2022/06/19 11:58:17;;;;;;;3.70;1.50;;;20.50;60.10;;;;;;5084711;28;20397;-69
2022/06/19 12:00:45;;;;;;;3.55;1.35;;;20.50;60.30;;;;;;5090082;28;20029;-69
2022/06/19 12:03:27;;;;;;;4.90;1.40;;;20.60;59.80;;;;;;5078204;28;20062;-69
2022/06/19 12:05:58;;;;;;;4.18;1.40;;;20.60;59.80;;;;;;5081842;28;20111;-69
2022/06/19 12:08:27;;;;;;;3.15;1.10;;;20.80;59.60;;;;;;5096119;28;20069;-69
2022/06/19 12:10:57;;;;;;;3.92;1.20;;;20.80;59.30;;;;;;5083568;28;20027;-69
2022/06/19 12:13:33;;;;;;;3.90;1.25;;;20.80;59.30;;;;;;5075999;28;20470;-68
2022/06/19 12:16:11;;;;;;;6.25;1.30;;;21.00;59.10;;;;;;5079693;28;20113;-68
2022/06/19 12:18:37;;;;;;;5.20;1.73;;;20.90;59.00;;;;;;5083424;28;20051;-69
2022/06/19 12:21:26;;;;;;;4.80;1.38;;;20.80;59.80;;;;;;5093992;28;20046;-68
2022/06/19 12:23:58;;;;;;;4.78;1.67;;;20.70;59.80;;;;;;5081153;28;20034;-68
2022/06/19 12:26:48;;;;;;;4.78;1.38;;;20.40;60.30;;;;;;5083734;28;20106;-69
2022/06/19 12:29:25;;;;;;;6.25;1.90;;;20.20;60.60;;;;;;5090067;28;20020;-68
2022/06/19 12:31:56;;;;;;;5.72;1.75;;;20.00;61.30;;;;;;5083933;28;20032;-69
2022/06/19 12:34:26;;;;;;;6.13;1.70;;;19.80;61.80;;;;;;5081462;28;20149;-68
2022/06/19 12:36:53;;;;;;;4.10;1.50;;;19.50;62.50;;;;;;5088509;28;20028;-68
2022/06/19 12:39:24;;;;;;;4.70;1.50;;;19.30;63.10;;;;;;5078285;28;20188;-68
2022/06/19 12:42:11;;;;;;;4.43;1.50;;;19.20;63.20;;;;;;5080494;28;20021;-68
2022/06/19 12:44:40;;;;;;;5.13;1.80;;;19.20;63.10;;;;;;5089597;28;20154;-68
2022/06/19 12:47:23;;;;;;;3.75;1.48;;;19.00;63.40;;;;;;5088746;28;20055;-68
2022/06/19 12:50:28;;;;;;;7.95;1.92;;;19.10;63.50;;;;;;5080899;28;20025;-68
2022/06/19 12:53:11;;;;;;;3.92;1.63;;;19.20;63.80;;;;;;5080128;28;20016;-68
2022/06/19 12:55:56;;;;;;;5.63;2.10;;;19.60;63.40;;;;;;5093473;28;20020;-67
2022/06/19 12:58:48;;;;;;;5.82;1.60;;;19.70;62.90;;;;;;5083523;28;20072;-68
2022/06/19 13:01:41;;;;;;;4.78;1.75;;;20.00;62.20;;;;;;5077817;28;20021;-68
2022/06/19 13:04:31;;;;;;;3.33;1.55;;;20.10;62.00;;;;;;5087949;28;20084;-68
2022/06/19 13:07:12;;;;;;;3.70;1.80;;;20.20;61.70;;;;;;5092084;28;20434;-69
2022/06/19 13:10:02;;;;;;;3.72;1.40;;;20.30;61.50;;;;;;5089617;28;20025;-68
2022/06/19 13:12:30;;;;;;;4.40;1.45;;;20.30;61.20;;;;;;5080664;28;20038;-68
2022/06/19 13:15:05;;;;;;;4.78;1.42;;;20.40;61.10;;;;;;5084600;28;20024;-68
2022/06/19 13:17:43;;;;;;;4.60;1.42;;;20.30;60.90;;;;;;5085395;28;20104;-69
2022/06/19 13:20:30;;;;;;;4.93;1.50;;;20.20;61.00;;;;;;5085657;28;20188;-68